Time;durP1;ratioP1;P1;durP2;ratioP2;P2;SDS_P1;SDS_P2;PMS_P1;PMS_P2;Temp;Humidity;BMP_temperature;BMP_pressure;BME280_temperature;BME280_humidity;BME280_pressure;Samples;Min_cycle;Max_cycle;Signal;HPM_P1;HPM_P2
2024/01/21 00:01:31;;;;;;;;;0.00;0.00;;;;;8.27;48.10;101355.22;5118101;27;45501;-71
2024/01/21 00:03:58;;;;;;;;;0.25;0.00;;;;;8.39;47.79;101374.06;5117567;27;45425;-70
2024/01/21 00:06:24;;;;;;;;;0.00;0.00;;;;;8.38;47.80;101374.91;5117735;27;45466;-70
2024/01/21 00:08:49;;;;;;;;;0.00;0.00;;;;;8.38;47.70;101374.00;5116581;27;45637;-70
2024/01/21 00:11:15;;;;;;;;;0.00;0.00;;;;;8.37;47.92;101378.28;5118329;27;45320;-70
2024/01/21 00:13:41;;;;;;;;;0.00;0.00;;;;;8.33;47.98;101360.72;5116129;27;45492;-70
2024/01/21 00:16:06;;;;;;;;;0.00;0.00;;;;;8.38;48.08;101366.19;5117702;27;45348;-71
2024/01/21 00:18:32;;;;;;;;;0.00;0.00;;;;;8.39;47.96;101371.47;5117749;27;45494;-71
2024/01/21 00:20:57;;;;;;;;;0.00;0.00;;;;;8.35;48.13;101357.38;5118853;27;45621;-71
2024/01/21 00:23:23;;;;;;;;;0.00;0.00;;;;;8.40;48.18;101368.06;5118477;27;46027;-70
2024/01/21 00:25:49;;;;;;;;;0.00;0.00;;;;;8.41;48.26;101356.84;5118664;27;45439;-71
2024/01/21 00:28:14;;;;;;;;;0.00;0.00;;;;;8.41;48.29;101361.13;5119097;27;45432;-71
2024/01/21 00:30:40;;;;;;;;;0.00;0.00;;;;;8.30;48.39;101329.34;5117994;27;45559;-70
2024/01/21 00:33:05;;;;;;;;;0.00;0.00;;;;;8.21;48.29;101297.63;5117115;27;45541;-71
2024/01/21 00:35:31;;;;;;;;;0.00;0.00;;;;;8.39;48.41;101332.41;5118469;27;45405;-71
2024/01/21 00:37:57;;;;;;;;;0.00;0.00;;;;;8.34;48.38;101333.91;5116468;27;45316;-70
2024/01/21 00:40:22;;;;;;;;;0.00;0.00;;;;;8.45;48.55;101352.69;5117730;27;45423;-70
2024/01/21 00:42:48;;;;;;;;;0.00;0.00;;;;;8.45;48.70;101357.91;5117031;27;46141;-71
2024/01/21 00:45:13;;;;;;;;;0.75;0.00;;;;;8.45;48.62;101363.09;5117762;27;45461;-71
2024/01/21 00:47:39;;;;;;;;;0.00;0.00;;;;;8.44;48.38;101369.16;5118126;27;45481;-71
2024/01/21 00:50:05;;;;;;;;;0.00;0.00;;;;;8.37;48.75;101357.47;5118535;27;45389;-71
2024/01/21 00:52:30;;;;;;;;;0.00;0.00;;;;;8.26;48.76;101345.63;5116478;27;45845;-70
2024/01/21 00:54:56;;;;;;;;;0.00;0.00;;;;;8.36;48.83;101369.59;5117972;27;45329;-70
2024/01/21 00:57:22;;;;;;;;;0.00;0.00;;;;;8.35;48.89;101370.41;5116849;27;45454;-71
2024/01/21 00:59:48;;;;;;;;;0.00;0.00;;;;;8.33;48.80;101365.94;5118893;27;45298;-71
2024/01/21 01:02:14;;;;;;;;;0.00;0.00;;;;;8.20;49.22;101345.28;5118151;27;45428;-71
2024/01/21 01:04:40;;;;;;;;;0.00;0.00;;;;;8.31;49.10;101381.47;5117967;27;45492;-71
2024/01/21 01:07:05;;;;;;;;;0.00;0.00;;;;;8.28;49.12;101388.25;5118319;27;45876;-71
2024/01/21 01:09:31;;;;;;;;;0.00;0.00;;;;;8.30;49.12;101390.09;5118348;27;45353;-71
2024/01/21 01:11:57;;;;;;;;;0.00;0.00;;;;;8.31;49.23;101388.41;5117926;27;45347;-71
2024/01/21 01:14:23;;;;;;;;;0.00;0.00;;;;;8.33;49.12;101382.44;5118065;27;45471;-71
2024/01/21 01:16:49;;;;;;;;;0.00;0.00;;;;;8.36;49.12;101387.81;5118351;27;45557;-71
2024/01/21 01:19:14;;;;;;;;;0.50;0.00;;;;;8.15;49.12;101364.16;5118044;27;45466;-71
2024/01/21 01:21:40;;;;;;;;;0.25;0.25;;;;;8.44;49.17;101389.97;5117829;27;45305;-71
2024/01/21 01:24:06;;;;;;;;;0.00;0.00;;;;;8.47;49.04;101393.59;5117934;27;45320;-70
2024/01/21 01:26:31;;;;;;;;;0.00;0.00;;;;;8.45;48.79;101396.97;5117930;27;45484;-70
2024/01/21 01:28:58;;;;;;;;;0.00;0.00;;;;;8.48;49.06;101407.56;5118110;27;45317;-71
2024/01/21 01:31:23;;;;;;;;;0.00;0.00;;;;;8.45;48.83;101403.06;5117817;27;45424;-70
2024/01/21 01:33:49;;;;;;;;;0.00;0.00;;;;;8.52;48.92;101419.91;5117725;27;45492;-71
2024/01/21 01:36:15;;;;;;;;;0.25;0.25;;;;;8.52;49.14;101425.13;5117768;27;45451;-71
2024/01/21 01:38:40;;;;;;;;;0.00;0.00;;;;;8.53;49.05;101429.50;5117885;27;45421;-71
2024/01/21 01:41:06;;;;;;;;;0.00;0.00;;;;;8.51;49.12;101434.63;5117513;27;45494;-71
2024/01/21 01:43:31;;;;;;;;;0.00;0.00;;;;;8.53;48.92;101424.28;5121162;27;45269;-71
2024/01/21 01:46:00;;;;;;;;;0.50;0.50;;;;;8.35;48.94;101391.22;5121318;27;45439;-70
2024/01/21 01:48:27;;;;;;;;;0.00;0.00;;;;;8.61;49.10;101435.13;5121465;27;45379;-70
2024/01/21 01:50:53;;;;;;;;;1.00;0.00;;;;;8.62;49.18;101419.56;5121214;27;46105;-70
2024/01/21 01:53:19;;;;;;;;;1.00;1.00;;;;;8.63;49.19;101423.06;5121261;27;45455;-71
2024/01/21 01:55:45;;;;;;;;;0.50;0.00;;;;;8.63;49.28;101433.47;5119879;27;45476;-71
2024/01/21 01:58:16;;;;;;;;;1.00;0.00;;;;;8.60;49.43;101448.97;5121389;27;45233;-71
2024/01/21 02:00:47;;;;;;;;;0.00;0.00;;;;;8.58;49.72;101458.41;5119596;27;46361;-71
2024/01/21 02:03:13;;;;;;;;;0.00;0.00;;;;;8.59;49.44;101460.19;5120752;27;45396;-71
2024/01/21 02:05:39;;;;;;;;;0.00;0.00;;;;;8.61;49.45;101485.47;5121076;27;45331;-71
2024/01/21 02:08:04;;;;;;;;;0.50;0.50;;;;;8.63;49.57;101488.19;5121035;27;45310;-71
2024/01/21 02:10:30;;;;;;;;;0.00;0.00;;;;;8.41;49.50;101452.25;5120771;27;46048;-71
2024/01/21 02:12:56;;;;;;;;;0.00;0.00;;;;;8.68;49.31;101484.13;5120734;27;45520;-71
2024/01/21 02:15:22;;;;;;;;;0.00;0.00;;;;;8.67;49.37;101485.81;5120986;27;45348;-70
2024/01/21 02:17:48;;;;;;;;;0.25;0.00;;;;;8.74;49.43;101495.75;5120991;27;45545;-70
2024/01/21 02:20:13;;;;;;;;;0.00;0.00;;;;;8.64;49.38;101490.88;5120664;27;45506;-71
2024/01/21 02:22:40;;;;;;;;;1.00;0.00;;;;;8.83;49.28;101504.84;5120513;27;45517;-70
2024/01/21 02:25:09;;;;;;;;;0.00;0.00;;;;;8.80;49.29;101516.03;5120691;27;45353;-71
2024/01/21 02:27:37;;;;;;;;;1.00;0.00;;;;;8.90;49.20;101513.06;5120812;27;45589;-71
2024/01/21 02:30:04;;;;;;;;;0.00;0.00;;;;;8.94;49.09;101514.13;5120468;27;46178;-71
2024/01/21 02:32:29;;;;;;;;;0.00;0.00;;;;;8.93;49.34;101527.97;5120486;27;45344;-71
2024/01/21 02:34:55;;;;;;;;;1.00;0.00;;;;;8.94;49.52;101540.19;5119499;27;45355;-71
2024/01/21 02:37:21;;;;;;;;;0.00;0.00;;;;;8.94;49.23;101535.88;5120974;27;45169;-71
2024/01/21 02:39:46;;;;;;;;;0.75;0.00;;;;;8.84;49.48;101522.28;5120320;27;45298;-71
2024/01/21 02:42:12;;;;;;;;;0.00;0.00;;;;;8.94;49.41;101525.44;5120333;27;45269;-71
2024/01/21 02:44:38;;;;;;;;;1.00;1.00;;;;;8.95;49.41;101536.75;5120448;27;45320;-71
2024/01/21 02:47:04;;;;;;;;;0.50;0.50;;;;;8.94;49.65;101533.25;5120635;27;45409;-71
2024/01/21 02:49:30;;;;;;;;;1.00;1.00;;;;;8.92;49.76;101518.38;5120143;27;46014;-71
2024/01/21 02:51:56;;;;;;;;;0.00;0.00;;;;;8.88;49.82;101501.69;5120189;27;45369;-71
2024/01/21 02:54:22;;;;;;;;;0.00;0.00;;;;;8.79;49.96;101488.16;5120516;27;46005;-71
2024/01/21 02:56:48;;;;;;;;;2.00;2.00;;;;;8.80;49.99;101489.09;5120218;27;45510;-71
2024/01/21 02:59:13;;;;;;;;;3.00;3.00;;;;;8.79;50.01;101493.38;5119791;27;46177;-71
2024/01/21 03:01:39;;;;;;;;;4.25;3.25;;;;;8.78;49.99;101475.06;5119907;27;45417;-71
2024/01/21 03:04:05;;;;;;;;;2.00;2.00;;;;;8.75;50.22;101468.91;5119955;27;45421;-71
2024/01/21 03:06:30;;;;;;;;;7.75;6.50;;;;;8.76;50.85;101472.38;5119962;27;45474;-71
2024/01/21 03:08:56;;;;;;;;;2.75;2.00;;;;;8.58;50.21;101442.78;5118836;27;46398;-71
2024/01/21 03:11:22;;;;;;;;;2.00;2.00;;;;;8.59;50.43;101427.22;5119833;27;45393;-71
2024/01/21 03:13:47;;;;;;;;;3.00;2.00;;;;;8.87;50.51;101476.47;5120183;27;45308;-70
2024/01/21 03:16:13;;;;;;;;;1.00;1.00;;;;;8.91;50.35;101478.41;5120131;27;45314;-70
2024/01/21 03:18:38;;;;;;;;;1.50;1.50;;;;;8.84;50.15;101472.78;5119720;27;46106;-70
2024/01/21 03:21:07;;;;;;;;;1.00;1.00;;;;;8.97;50.31;101496.03;5119671;27;45456;-70
2024/01/21 03:23:34;;;;;;;;;0.25;0.25;;;;;8.95;50.43;101501.19;5119906;27;45841;-71
2024/01/21 03:25:59;;;;;;;;;0.00;0.00;;;;;8.98;50.49;101499.56;5119884;27;45351;-71
2024/01/21 03:28:25;;;;;;;;;1.50;1.00;;;;;8.70;50.54;101459.94;5119706;27;45293;-71
2024/01/21 03:30:51;;;;;;;;;0.00;0.00;;;;;9.01;50.41;101510.13;5119659;27;45479;-71
2024/01/21 03:33:16;;;;;;;;;2.00;1.00;;;;;9.00;50.31;101508.34;5119737;27;45395;-70
2024/01/21 03:35:42;;;;;;;;;1.00;1.00;;;;;9.03;50.12;101500.69;5119744;27;45489;-71
2024/01/21 03:38:08;;;;;;;;;1.00;1.00;;;;;9.01;50.20;101505.81;5119395;27;46061;-71
2024/01/21 03:40:33;;;;;;;;;0.00;0.00;;;;;9.01;50.49;101502.31;5119478;27;45492;-71
2024/01/21 03:42:59;;;;;;;;;1.25;1.00;;;;;8.98;50.60;101510.00;5119836;27;45233;-71
2024/01/21 03:45:25;;;;;;;;;1.00;1.00;;;;;8.95;50.58;101524.66;5119818;27;45504;-71
2024/01/21 03:47:50;;;;;;;;;3.00;2.75;;;;;8.92;50.71;101495.81;5119171;27;45860;-71
2024/01/21 03:50:20;;;;;;;;;3.00;2.50;;;;;8.91;51.02;101495.72;5119090;27;45333;-70
2024/01/21 03:52:49;;;;;;;;;1.25;1.00;;;;;8.87;50.92;101475.53;5119270;27;45270;-71
2024/01/21 03:55:16;;;;;;;;;0.25;0.00;;;;;8.85;50.93;101474.56;5119357;27;45499;-71
2024/01/21 03:57:42;;;;;;;;;0.00;0.00;;;;;8.87;50.90;101497.31;5118907;27;45957;-70
2024/01/21 04:00:09;;;;;;;;;0.00;0.00;;;;;8.98;50.74;101530.84;5117540;27;45358;-70
2024/01/21 04:02:35;;;;;;;;;0.00;0.00;;;;;8.96;50.76;101542.06;5119287;27;45390;-71
2024/01/21 04:05:01;;;;;;;;;0.00;0.00;;;;;8.95;50.88;101548.09;5118895;27;45803;-71
2024/01/21 04:07:27;;;;;;;;;0.00;0.00;;;;;8.98;50.88;101538.66;5119270;27;45393;-71
2024/01/21 04:09:52;;;;;;;;;0.00;0.00;;;;;8.99;50.59;101528.28;5118666;27;45494;-71
2024/01/21 04:12:18;;;;;;;;;0.00;0.00;;;;;9.08;50.52;101514.84;5118808;27;45480;-70
2024/01/21 04:14:43;;;;;;;;;0.00;0.00;;;;;9.14;50.31;101517.78;5118953;27;45371;-70
2024/01/21 04:17:09;;;;;;;;;0.00;0.00;;;;;9.16;50.21;101510.94;5118581;27;45992;-70
2024/01/21 04:19:35;;;;;;;;;0.00;0.00;;;;;9.05;50.18;101502.56;5118646;27;45419;-70
2024/01/21 04:22:01;;;;;;;;;0.00;0.00;;;;;8.83;50.36;101461.44;5119266;27;45278;-70
2024/01/21 04:24:26;;;;;;;;;0.00;0.00;;;;;9.14;50.76;101528.19;5118922;27;45262;-70
2024/01/21 04:26:52;;;;;;;;;0.00;0.00;;;;;9.10;50.47;101529.75;5118739;27;45366;-70
2024/01/21 04:29:18;;;;;;;;;0.00;0.00;;;;;9.11;50.52;101530.63;5118699;27;45338;-70
2024/01/21 04:31:43;;;;;;;;;0.00;0.00;;;;;9.09;50.77;101527.06;5118799;27;45525;-71
2024/01/21 04:34:09;;;;;;;;;0.00;0.00;;;;;9.12;50.58;101525.50;5118932;27;45266;-71
2024/01/21 04:36:35;;;;;;;;;0.00;0.00;;;;;9.11;50.40;101534.16;5118498;27;45588;-71
2024/01/21 04:39:01;;;;;;;;;0.00;0.00;;;;;9.11;50.71;101533.25;5118818;27;45262;-70
2024/01/21 04:41:26;;;;;;;;;0.00;0.00;;;;;9.11;50.77;101525.41;5118791;27;45293;-70
2024/01/21 04:43:52;;;;;;;;;0.00;0.00;;;;;9.14;50.43;101518.66;5118667;27;45433;-71
2024/01/21 04:46:18;;;;;;;;;0.00;0.00;;;;;9.15;50.29;101524.75;5118168;27;46066;-70
2024/01/21 04:48:43;;;;;;;;;0.00;0.00;;;;;9.17;50.34;101523.13;5118344;27;45577;-71
2024/01/21 04:51:10;;;;;;;;;0.00;0.00;;;;;9.14;50.49;101522.97;5118284;27;45561;-70
2024/01/21 04:53:37;;;;;;;;;0.00;0.00;;;;;8.88;50.50;101483.44;5118711;27;45383;-71
2024/01/21 04:56:04;;;;;;;;;0.00;0.00;;;;;9.16;50.34;101527.44;5118591;27;45496;-71
2024/01/21 04:58:29;;;;;;;;;0.00;0.00;;;;;9.04;50.42;101519.00;5118525;27;45482;-70
2024/01/21 05:00:55;;;;;;;;;0.00;0.00;;;;;9.18;50.29;101537.97;5118332;27;45547;-70
2024/01/21 05:03:20;;;;;;;;;0.25;0.25;;;;;9.09;50.15;101538.41;5118372;27;45457;-71
2024/01/21 05:05:47;;;;;;;;;0.00;0.00;;;;;9.12;50.17;101551.56;5117984;27;45438;-70
2024/01/21 05:08:13;;;;;;;;;0.00;0.00;;;;;9.11;50.15;101548.88;5118156;27;45232;-70
2024/01/21 05:10:39;;;;;;;;;0.50;0.00;;;;;9.14;50.23;101568.19;5118334;27;45233;-70
2024/01/21 05:13:05;;;;;;;;;0.00;0.00;;;;;9.16;50.10;101563.06;5118395;27;45494;-71
2024/01/21 05:15:30;;;;;;;;;0.00;0.00;;;;;9.18;49.92;101560.53;5118127;27;45978;-71
2024/01/21 05:17:58;;;;;;;;;0.00;0.00;;;;;8.99;49.71;101522.19;5120690;27;45233;-70
2024/01/21 05:20:24;;;;;;;;;0.00;0.00;;;;;9.27;49.72;101567.13;5121844;27;45490;-70
2024/01/21 05:22:50;;;;;;;;;0.00;0.00;;;;;9.29;49.91;101569.78;5122086;27;45441;-70
2024/01/21 05:25:19;;;;;;;;;0.00;0.00;;;;;9.00;49.85;101530.09;5121448;27;45285;-72
2024/01/21 05:27:44;;;;;;;;;0.00;0.00;;;;;9.25;50.12;101560.94;5121741;27;45366;-72
2024/01/21 05:30:12;;;;;;;;;0.25;0.00;;;;;9.27;49.80;101561.91;5121460;27;45537;-70
2024/01/21 05:32:38;;;;;;;;;1.00;0.00;;;;;9.27;50.15;101561.00;5121838;27;45372;-72
2024/01/21 05:35:06;;;;;;;;;0.00;0.00;;;;;9.26;49.96;101577.47;5121783;27;45435;-70
2024/01/21 05:37:32;;;;;;;;;0.00;0.00;;;;;9.28;49.83;101573.22;5120430;27;45369;-71
2024/01/21 05:39:57;;;;;;;;;0.00;0.00;;;;;9.12;49.97;101563.72;5121511;27;45481;-72
2024/01/21 05:42:23;;;;;;;;;0.00;0.00;;;;;9.22;50.05;101570.31;5121783;27;45166;-71
2024/01/21 05:44:48;;;;;;;;;0.50;0.00;;;;;9.24;50.13;101571.28;5121086;27;46171;-71
2024/01/21 05:47:14;;;;;;;;;0.00;0.00;;;;;9.32;49.91;101570.84;5121335;27;45419;-71
2024/01/21 05:49:39;;;;;;;;;0.00;0.00;;;;;9.35;49.58;101562.28;5121446;27;45187;-72
2024/01/21 05:52:05;;;;;;;;;0.00;0.00;;;;;9.43;49.57;101570.50;5121665;27;45488;-71
2024/01/21 05:54:31;;;;;;;;;0.00;0.00;;;;;9.46;49.39;101568.94;5121107;27;46070;-72
2024/01/21 05:56:57;;;;;;;;;0.00;0.00;;;;;9.49;49.93;101566.50;5121024;27;45398;-71
2024/01/21 05:59:22;;;;;;;;;0.00;0.00;;;;;9.48;49.64;101561.22;5121316;27;45224;-71
2024/01/21 06:01:49;;;;;;;;;0.00;0.00;;;;;9.40;49.51;101547.78;5121374;27;45245;-71
2024/01/21 06:04:18;;;;;;;;;0.00;0.00;;;;;9.44;49.51;101548.84;5120762;27;46104;-71
2024/01/21 06:06:44;;;;;;;;;0.00;0.00;;;;;9.63;49.27;101571.50;5120700;27;45471;-71
2024/01/21 06:09:10;;;;;;;;;0.00;0.00;;;;;9.58;49.37;101550.41;5120912;27;45257;-71
2024/01/21 06:11:35;;;;;;;;;0.00;0.00;;;;;9.80;48.77;101577.59;5120014;27;45563;-71
2024/01/21 06:14:01;;;;;;;;;0.00;0.00;;;;;9.66;48.88;101564.72;5120770;27;45489;-70
2024/01/21 06:16:27;;;;;;;;;0.00;0.00;;;;;9.81;48.88;101579.34;5120823;27;45454;-71
2024/01/21 06:18:52;;;;;;;;;0.00;0.00;;;;;9.82;48.89;101586.38;5120933;27;45340;-71
2024/01/21 06:21:18;;;;;;;;;0.25;0.00;;;;;9.66;48.88;101564.72;5120971;27;45529;-70
2024/01/21 06:23:44;;;;;;;;;0.50;0.00;;;;;9.83;48.28;101601.19;5120794;27;45911;-70
2024/01/21 06:26:20;;;;;;;;;0.00;0.00;;;;;9.80;48.74;101595.84;5120543;27;45580;-71
2024/01/21 06:28:47;;;;;;;;;0.00;0.00;;;;;9.77;48.82;101601.81;5120092;27;45530;-71
2024/01/21 06:31:13;;;;;;;;;0.00;0.00;;;;;9.74;49.01;101597.31;5120715;27;45272;-70
2024/01/21 06:33:39;;;;;;;;;1.00;0.00;;;;;9.71;49.07;101594.56;5120813;27;45302;-70
2024/01/21 06:36:05;;;;;;;;;0.00;0.00;;;;;9.74;48.49;101591.22;5120972;27;45281;-70
2024/01/21 06:38:30;;;;;;;;;1.00;0.00;;;;;9.63;48.74;101567.22;5120600;27;45467;-71
2024/01/21 06:40:56;;;;;;;;;0.00;0.00;;;;;9.58;48.53;101550.41;5120476;27;45443;-71
2024/01/21 06:43:22;;;;;;;;;0.00;0.00;;;;;9.87;48.76;101597.97;5120383;27;45369;-71
2024/01/21 06:45:47;;;;;;;;;0.00;0.00;;;;;9.90;48.54;101596.38;5120285;27;45404;-70
2024/01/21 06:48:13;;;;;;;;;0.25;0.00;;;;;9.72;48.59;101565.03;5120359;27;45513;-70
2024/01/21 06:50:38;;;;;;;;;0.00;0.00;;;;;9.92;48.37;101586.91;5120749;27;45417;-70
2024/01/21 06:53:04;;;;;;;;;0.00;0.00;;;;;9.96;48.49;101588.84;5119994;27;46009;-71
2024/01/21 06:55:29;;;;;;;;;0.00;0.00;;;;;9.77;48.31;101552.25;5120007;27;45359;-70
2024/01/21 06:57:55;;;;;;;;;0.00;0.00;;;;;9.90;48.52;101575.50;5120285;27;45577;-70
2024/01/21 07:00:21;;;;;;;;;0.00;0.00;;;;;10.05;48.09;101595.34;5120430;27;45677;-70
2024/01/21 07:02:47;;;;;;;;;0.00;0.00;;;;;10.01;48.04;101591.69;5120126;27;45482;-70
2024/01/21 07:05:12;;;;;;;;;0.00;0.00;;;;;10.05;47.76;101600.56;5120016;27;45470;-71
2024/01/21 07:07:38;;;;;;;;;1.50;1.25;;;;;9.82;47.99;101565.50;5120518;27;45452;-71
2024/01/21 07:10:04;;;;;;;;;2.00;2.00;;;;;10.01;47.97;101609.97;5120097;27;45345;-70
2024/01/21 07:12:29;;;;;;;;;1.50;1.00;;;;;10.07;48.03;101618.09;5119644;27;46104;-70
2024/01/21 07:14:55;;;;;;;;;1.75;0.75;;;;;10.07;47.86;101620.72;5119535;27;45506;-70
2024/01/21 07:17:21;;;;;;;;;2.25;1.00;;;;;10.08;47.69;101626.81;5119816;27;45233;-70
2024/01/21 07:19:52;;;;;;;;;4.00;4.00;;;;;10.09;47.73;101632.13;5119961;27;45332;-70
2024/01/21 07:22:20;;;;;;;;;6.00;4.00;;;;;10.08;47.70;101625.09;5119566;27;45947;-70
2024/01/21 07:24:46;;;;;;;;;1.50;1.50;;;;;9.95;47.65;101592.28;5119431;27;45479;-70
2024/01/21 07:27:12;;;;;;;;;1.25;1.25;;;;;10.15;47.62;101626.31;5120048;27;45284;-70
2024/01/21 07:29:38;;;;;;;;;1.00;1.00;;;;;10.18;47.51;101634.28;5119577;27;45454;-71
2024/01/21 07:32:04;;;;;;;;;1.00;1.00;;;;;10.21;47.22;101642.28;5119120;27;46191;-70
2024/01/21 07:34:30;;;;;;;;;0.00;0.00;;;;;10.16;47.26;101623.75;5119331;27;45433;-70
2024/01/21 07:36:55;;;;;;;;;0.00;0.00;;;;;10.27;47.22;101647.78;5119542;27;45478;-70
2024/01/21 07:39:21;;;;;;;;;0.00;0.00;;;;;10.29;47.58;101655.72;5118629;27;45493;-71
2024/01/21 07:41:46;;;;;;;;;0.25;0.25;;;;;10.28;47.10;101646.94;5119280;27;45879;-71
2024/01/21 07:44:12;;;;;;;;;1.00;0.50;;;;;10.38;47.01;101670.97;5119700;27;45266;-71
2024/01/21 07:46:38;;;;;;;;;1.00;0.25;;;;;10.38;47.08;101658.78;5119457;27;45272;-71
2024/01/21 07:49:03;;;;;;;;;0.00;0.00;;;;;10.45;46.81;101670.44;5119643;27;45277;-70
2024/01/21 07:51:29;;;;;;;;;0.00;0.00;;;;;10.35;46.81;101663.88;5119008;27;45416;-70
2024/01/21 07:53:55;;;;;;;;;1.75;1.00;;;;;10.37;46.71;101662.22;5119121;27;45485;-70
2024/01/21 07:56:20;;;;;;;;;1.00;1.00;;;;;10.61;46.36;101691.25;5119352;27;45307;-70
2024/01/21 07:58:46;;;;;;;;;0.00;0.00;;;;;10.46;46.27;101660.03;5119448;27;45561;-70
2024/01/21 08:01:12;;;;;;;;;0.00;0.00;;;;;10.69;46.07;101699.47;5119009;27;46028;-71
2024/01/21 08:03:38;;;;;;;;;1.00;0.00;;;;;10.79;46.10;101711.25;5118929;27;45364;-70
2024/01/21 08:06:05;;;;;;;;;0.00;0.00;;;;;10.76;45.61;101698.91;5118933;27;45454;-70
2024/01/21 08:08:31;;;;;;;;;2.00;1.75;;;;;10.87;45.68;101715.13;5119131;27;45247;-70
2024/01/21 08:10:56;;;;;;;;;0.00;0.00;;;;;10.76;45.22;101696.31;5118825;27;45608;-71
2024/01/21 08:13:22;;;;;;;;;0.00;0.00;;;;;10.99;45.45;101740.97;5118901;27;45313;-71
2024/01/21 08:15:48;;;;;;;;;0.00;0.00;;;;;11.03;45.39;101755.97;5119050;27;45272;-71
2024/01/21 08:18:18;;;;;;;;;2.50;1.00;;;;;11.07;45.09;101755.28;5118534;27;45396;-70
2024/01/21 08:20:44;;;;;;;;;1.00;1.00;;;;;11.09;45.17;101764.09;5118983;27;45538;-70
2024/01/21 08:23:09;;;;;;;;;0.50;0.50;;;;;11.14;45.10;101770.44;5118538;27;45379;-70
2024/01/21 08:25:35;;;;;;;;;0.75;0.75;;;;;11.17;45.03;101770.59;5118589;27;45302;-70
2024/01/21 08:28:01;;;;;;;;;0.00;0.00;;;;;11.23;44.92;101773.50;5118966;27;45405;-70
2024/01/21 08:30:27;;;;;;;;;1.00;0.50;;;;;11.19;44.90;101761.09;5118587;27;45458;-67
2024/01/21 08:32:52;;;;;;;;;0.00;0.00;;;;;11.31;44.66;101766.88;5118577;27;45378;-69
2024/01/21 08:35:20;;;;;;;;;0.00;0.00;;;;;11.37;44.36;101776.75;5118427;27;45454;-69
2024/01/21 08:37:48;;;;;;;;;1.00;0.50;;;;;11.44;44.43;101784.06;5118066;27;45240;-68
2024/01/21 08:40:14;;;;;;;;;1.00;1.00;;;;;11.40;44.00;101765.53;5117948;27;45420;-69
2024/01/21 08:42:40;;;;;;;;;0.00;0.00;;;;;11.57;43.82;101780.28;5117656;27;45376;-70
2024/01/21 08:45:07;;;;;;;;;1.00;0.00;;;;;11.52;43.83;101758.25;5118244;27;45328;-70
2024/01/21 08:47:33;;;;;;;;;1.75;1.00;;;;;11.72;43.84;101782.72;5118235;27;45336;-70
2024/01/21 08:49:59;;;;;;;;;1.00;1.00;;;;;11.86;43.67;101799.94;5118023;27;45957;-69
2024/01/21 08:52:25;;;;;;;;;0.75;0.75;;;;;11.97;43.23;101787.34;5119870;27;45560;-69
2024/01/21 08:54:50;;;;;;;;;2.00;1.00;;;;;12.06;43.23;101793.00;5121421;27;45398;-70
2024/01/21 08:57:16;;;;;;;;;2.00;2.00;;;;;12.17;43.15;101796.06;5117376;27;45255;-70
2024/01/21 08:59:43;;;;;;;;;1.00;1.00;;;;;12.29;43.03;101808.81;5121035;27;45809;-69
2024/01/21 09:02:09;;;;;;;;;3.00;2.00;;;;;12.36;42.65;101799.50;5108996;27;45409;-70
2024/01/21 09:04:37;;;;;;;;;2.50;1.75;;;;;12.41;42.54;101790.09;5100747;27;45476;-70
2024/01/21 09:07:03;;;;;;;;;1.00;1.00;;;;;12.47;42.02;101783.41;5100669;27;45233;-71
2024/01/21 09:09:29;;;;;;;;;1.00;1.00;;;;;12.61;41.94;101793.53;5100063;27;45372;-71
2024/01/21 09:11:56;;;;;;;;;4.25;1.00;;;;;12.56;42.07;101775.00;5100464;27;45478;-70
2024/01/21 09:14:22;;;;;;;;;2.00;1.25;;;;;12.72;41.79;101781.78;5100427;27;45499;-70
2024/01/21 09:16:48;;;;;;;;;1.50;1.00;;;;;12.63;41.81;101747.31;5100401;27;45503;-71
2024/01/21 09:19:13;;;;;;;;;0.25;0.25;;;;;13.15;41.65;101794.00;5100512;27;45506;-71
2024/01/21 09:21:39;;;;;;;;;1.00;1.00;;;;;13.44;41.26;101794.25;5100009;27;45339;-69
2024/01/21 09:24:07;;;;;;;;;0.00;0.00;;;;;13.92;40.40;101803.06;5119916;27;45858;-70
2024/01/21 09:26:33;;;;;;;;;1.00;0.00;;;;;14.22;39.81;101815.50;5115519;27;45437;-69
2024/01/21 09:28:59;;;;;;;;;1.00;1.00;;;;;14.34;39.71;101817.69;5117157;27;46073;-70
2024/01/21 09:31:25;;;;;;;;;0.00;0.00;;;;;14.21;39.59;101797.09;5119306;27;45365;-69
2024/01/21 09:33:52;;;;;;;;;0.00;0.00;;;;;14.26;39.39;101819.16;5117766;27;45477;-68
2024/01/21 09:36:19;;;;;;;;;1.00;1.00;;;;;14.20;39.39;101816.31;5120521;27;45403;-70
2024/01/21 09:38:45;;;;;;;;;1.00;0.00;;;;;14.18;39.97;101812.72;5120275;27;46213;-70
2024/01/21 09:41:32;;;;;;;;;1.00;0.50;;;;;14.12;39.95;101805.53;5117149;27;45340;-71
2024/01/21 09:43:59;;;;;;;;;1.00;0.25;;;;;14.13;39.23;101802.06;5118542;27;45325;-71
2024/01/21 09:46:25;;;;;;;;;0.00;0.00;;;;;14.31;39.39;101793.94;5120396;27;45389;-71
2024/01/21 09:48:52;;;;;;;;;1.00;1.00;;;;;14.94;39.09;101793.44;5117206;27;46084;-70
2024/01/21 09:51:20;;;;;;;;;8.00;8.00;;;;;15.84;38.02;101786.50;5120093;27;45787;-70
2024/01/21 09:53:47;;;;;;;;;3.00;3.00;;;;;16.47;37.25;101772.34;5121097;27;45349;-70
2024/01/21 09:56:13;;;;;;;;;5.00;4.50;;;;;16.88;36.56;101765.47;5121111;27;45545;-70
2024/01/21 09:58:51;;;;;;;;;2.67;2.33;;;;;17.23;36.43;101762.78;5112597;27;46770;-71
2024/01/21 10:01:18;;;;;;;;;2.33;2.33;;;;;17.60;35.37;101768.81;5120247;27;45175;-68
2024/01/21 10:03:46;;;;;;;;;1.00;1.00;;;;;17.78;35.45;101778.88;5119278;27;45393;-71
2024/01/21 10:06:13;;;;;;;;;2.33;2.00;;;;;18.12;35.36;101781.31;5119827;27;45307;-70
2024/01/21 10:08:44;;;;;;;;;1.33;1.00;;;;;18.38;35.01;101785.34;5116892;27;46266;-70
2024/01/21 10:11:10;;;;;;;;;1.00;1.00;;;;;18.65;33.99;101773.44;5119412;27;45286;-69
2024/01/21 10:13:38;;;;;;;;;1.00;1.00;;;;;18.92;34.54;101773.03;5119675;27;45591;-71
2024/01/21 10:16:07;;;;;;;;;1.00;1.00;;;;;18.73;33.49;101737.38;5120153;27;46184;-71
2024/01/21 10:18:34;;;;;;;;;1.00;1.00;;;;;18.75;33.45;101762.13;5119427;27;45438;-71
2024/01/21 10:21:04;;;;;;;;;0.33;0.00;;;;;18.82;33.50;101785.22;5117112;27;45976;-69
2024/01/21 10:23:30;;;;;;;;;1.67;1.67;;;;;18.76;33.18;101779.81;5119024;27;45676;-69
2024/01/21 10:25:55;;;;;;;;;1.00;1.00;;;;;18.74;33.00;101772.69;5119630;27;45545;-70
2024/01/21 10:28:22;;;;;;;;;2.00;1.67;;;;;18.65;33.43;101769.03;5119420;27;45398;-69
2024/01/21 10:30:48;;;;;;;;;2.00;1.00;;;;;18.41;33.19;101758.94;5119601;27;45519;-70
2024/01/21 10:33:14;;;;;;;;;3.00;3.00;;;;;18.15;33.87;101762.88;5119148;27;45452;-70
2024/01/21 10:35:43;;;;;;;;;2.00;2.00;;;;;17.90;34.16;101762.41;5119740;27;45310;-69
2024/01/21 10:38:12;;;;;;;;;4.33;4.33;;;;;17.63;34.68;101768.00;5119176;27;45320;-70
2024/01/21 10:40:43;;;;;;;;;2.00;2.00;;;;;17.26;34.90;101736.41;5118714;27;45546;-69
2024/01/21 10:43:19;;;;;;;;;1.00;1.00;;;;;17.30;34.93;101762.03;5119058;27;45519;-69
2024/01/21 10:45:46;;;;;;;;;3.00;3.00;;;;;17.30;35.20;101762.03;5115974;27;45469;-70
2024/01/21 10:48:15;;;;;;;;;3.00;3.00;;;;;17.29;35.78;101762.03;5118826;27;45468;-69
2024/01/21 10:50:44;;;;;;;;;2.00;2.00;;;;;17.39;35.87;101756.06;5116052;27;45854;-69
2024/01/21 10:53:11;;;;;;;;;4.00;4.00;;;;;17.39;36.09;101747.22;5117502;27;45921;-71
2024/01/21 10:55:39;;;;;;;;;1.67;1.67;;;;;17.40;36.23;101741.09;5119302;27;45491;-71
2024/01/21 10:58:06;;;;;;;;;2.67;2.67;;;;;17.63;35.90;101766.25;5100175;27;46099;-71
2024/01/21 11:00:31;;;;;;;;;3.67;3.00;;;;;17.74;35.83;101770.84;5098695;27;45386;-72
2024/01/21 11:03:27;;;;;;;;;1.00;0.33;;;;;17.97;36.29;101774.00;5098884;27;45441;-70
2024/01/21 11:06:07;;;;;;;;;2.67;2.00;;;;;18.24;35.96;101768.31;5113674;27;45314;-72
2024/01/21 11:08:35;;;;;;;;;2.00;2.00;;;;;18.40;35.53;101766.81;5117625;27;46100;-71
2024/01/21 11:11:02;;;;;;;;;1.33;1.00;;;;;18.46;35.50;101764.28;5118347;27;45535;-71
2024/01/21 11:13:46;;;;;;;;;1.00;1.00;;;;;18.57;35.52;101775.06;5118118;27;45337;-71
2024/01/21 11:16:33;;;;;;;;;3.00;3.00;;;;;18.69;35.29;101772.63;5115879;27;45374;-72
2024/01/21 11:19:11;;;;;;;;;2.33;2.00;;;;;18.68;35.35;101763.78;5116616;27;45401;-71
2024/01/21 11:21:43;;;;;;;;;0.00;0.00;;;;;18.73;35.07;101765.63;5116391;27;45498;-72
2024/01/21 11:24:13;;;;;;;;;2.00;2.00;;;;;18.71;35.12;101757.66;5117948;27;45346;-71
2024/01/21 11:26:47;;;;;;;;;2.67;2.33;;;;;18.67;34.97;101753.19;5117856;27;45420;-71